sensor_id;sensor_type;location;lat;lon;timestamp;P1;durP1;ratioP1;P2;durP2;ratioP2
920;SDS011;447;51.332;6.778;2023-11-19T00:01:05;2.53;;;2.33;;
920;SDS011;447;51.332;6.778;2023-11-19T00:03:31;2.93;;;2.73;;
920;SDS011;447;51.332;6.778;2023-11-19T00:06:01;3.10;;;2.37;;
920;SDS011;447;51.332;6.778;2023-11-19T00:08:26;4.67;;;2.00;;
920;SDS011;447;51.332;6.778;2023-11-19T00:10:52;3.70;;;2.10;;
920;SDS011;447;51.332;6.778;2023-11-19T00:13:23;4.00;;;2.10;;
920;SDS011;447;51.332;6.778;2023-11-19T00:15:51;2.13;;;1.93;;
920;SDS011;447;51.332;6.778;2023-11-19T00:18:19;2.20;;;1.97;;
920;SDS011;447;51.332;6.778;2023-11-19T00:20:45;2.60;;;2.05;;
920;SDS011;447;51.332;6.778;2023-11-19T00:23:11;2.65;;;2.28;;
920;SDS011;447;51.332;6.778;2023-11-19T00:25:37;3.93;;;2.17;;
920;SDS011;447;51.332;6.778;2023-11-19T00:28:04;2.50;;;2.30;;
920;SDS011;447;51.332;6.778;2023-11-19T00:30:30;2.22;;;1.73;;
920;SDS011;447;51.332;6.778;2023-11-19T00:32:56;2.30;;;2.00;;
920;SDS011;447;51.332;6.778;2023-11-19T00:35:22;2.30;;;2.10;;
920;SDS011;447;51.332;6.778;2023-11-19T00:37:49;4.73;;;2.67;;
920;SDS011;447;51.332;6.778;2023-11-19T00:40:15;3.22;;;2.10;;
920;SDS011;447;51.332;6.778;2023-11-19T00:42:43;2.03;;;1.87;;
920;SDS011;447;51.332;6.778;2023-11-19T00:45:09;2.23;;;1.77;;
920;SDS011;447;51.332;6.778;2023-11-19T00:47:42;3.07;;;1.93;;
920;SDS011;447;51.332;6.778;2023-11-19T00:50:08;1.80;;;1.70;;
920;SDS011;447;51.332;6.778;2023-11-19T00:52:37;3.00;;;1.90;;
920;SDS011;447;51.332;6.778;2023-11-19T00:55:06;2.10;;;1.90;;
920;SDS011;447;51.332;6.778;2023-11-19T00:57:35;4.30;;;2.00;;
920;SDS011;447;51.332;6.778;2023-11-19T01:00:01;1.90;;;1.80;;
920;SDS011;447;51.332;6.778;2023-11-19T01:02:34;6.63;;;2.33;;
920;SDS011;447;51.332;6.778;2023-11-19T01:05:00;2.63;;;2.00;;
920;SDS011;447;51.332;6.778;2023-11-19T01:07:26;2.80;;;2.10;;
920;SDS011;447;51.332;6.778;2023-11-19T01:09:58;2.97;;;2.10;;
920;SDS011;447;51.332;6.778;2023-11-19T01:12:27;4.15;;;1.80;;
920;SDS011;447;51.332;6.778;2023-11-19T01:14:53;3.13;;;2.35;;
920;SDS011;447;51.332;6.778;2023-11-19T01:17:20;2.50;;;1.77;;
920;SDS011;447;51.332;6.778;2023-11-19T01:19:48;6.20;;;1.60;;
920;SDS011;447;51.332;6.778;2023-11-19T01:22:15;1.73;;;1.63;;
920;SDS011;447;51.332;6.778;2023-11-19T01:24:44;2.33;;;2.00;;
920;SDS011;447;51.332;6.778;2023-11-19T01:27:13;5.53;;;1.63;;
920;SDS011;447;51.332;6.778;2023-11-19T01:29:40;2.03;;;1.70;;
920;SDS011;447;51.332;6.778;2023-11-19T01:32:08;2.00;;;1.80;;
920;SDS011;447;51.332;6.778;2023-11-19T01:34:40;1.73;;;1.60;;
920;SDS011;447;51.332;6.778;2023-11-19T01:37:06;3.40;;;1.60;;
920;SDS011;447;51.332;6.778;2023-11-19T01:39:35;1.60;;;1.50;;
920;SDS011;447;51.332;6.778;2023-11-19T01:42:04;1.80;;;1.60;;
920;SDS011;447;51.332;6.778;2023-11-19T01:44:33;2.40;;;2.00;;
920;SDS011;447;51.332;6.778;2023-11-19T01:47:01;2.37;;;1.40;;
920;SDS011;447;51.332;6.778;2023-11-19T01:49:29;1.60;;;1.50;;
920;SDS011;447;51.332;6.778;2023-11-19T01:51:57;1.60;;;1.50;;
920;SDS011;447;51.332;6.778;2023-11-19T01:54:31;1.60;;;1.50;;
920;SDS011;447;51.332;6.778;2023-11-19T01:57:02;1.70;;;1.60;;
920;SDS011;447;51.332;6.778;2023-11-19T01:59:28;2.60;;;1.43;;
920;SDS011;447;51.332;6.778;2023-11-19T02:01:54;1.90;;;1.60;;
920;SDS011;447;51.332;6.778;2023-11-19T02:04:24;1.67;;;1.33;;
920;SDS011;447;51.332;6.778;2023-11-19T02:06:51;2.00;;;1.60;;
920;SDS011;447;51.332;6.778;2023-11-19T02:09:19;1.92;;;1.30;;
920;SDS011;447;51.332;6.778;2023-11-19T02:11:45;1.53;;;1.33;;
920;SDS011;447;51.332;6.778;2023-11-19T02:14:16;2.07;;;1.50;;
920;SDS011;447;51.332;6.778;2023-11-19T02:16:48;1.43;;;1.30;;
920;SDS011;447;51.332;6.778;2023-11-19T02:19:14;1.77;;;1.43;;
920;SDS011;447;51.332;6.778;2023-11-19T02:21:40;1.60;;;1.50;;
920;SDS011;447;51.332;6.778;2023-11-19T02:24:08;2.20;;;1.50;;
920;SDS011;447;51.332;6.778;2023-11-19T02:26:39;1.70;;;1.50;;
920;SDS011;447;51.332;6.778;2023-11-19T02:29:09;2.57;;;1.33;;
920;SDS011;447;51.332;6.778;2023-11-19T02:31:38;1.73;;;1.20;;
920;SDS011;447;51.332;6.778;2023-11-19T02:34:05;1.53;;;1.43;;
920;SDS011;447;51.332;6.778;2023-11-19T02:36:34;1.57;;;1.47;;
920;SDS011;447;51.332;6.778;2023-11-19T02:39:00;1.53;;;1.43;;
920;SDS011;447;51.332;6.778;2023-11-19T02:41:28;2.50;;;1.50;;
920;SDS011;447;51.332;6.778;2023-11-19T02:43:54;1.77;;;1.20;;
920;SDS011;447;51.332;6.778;2023-11-19T02:46:20;2.38;;;1.42;;
920;SDS011;447;51.332;6.778;2023-11-19T02:48:49;1.60;;;1.50;;
920;SDS011;447;51.332;6.778;2023-11-19T02:51:17;2.00;;;1.80;;
920;SDS011;447;51.332;6.778;2023-11-19T02:53:44;1.90;;;1.60;;
920;SDS011;447;51.332;6.778;2023-11-19T02:56:13;1.90;;;1.63;;
920;SDS011;447;51.332;6.778;2023-11-19T02:58:53;4.43;;;1.50;;
920;SDS011;447;51.332;6.778;2023-11-19T03:01:23;1.50;;;1.40;;
920;SDS011;447;51.332;6.778;2023-11-19T03:03:57;6.85;;;1.73;;
920;SDS011;447;51.332;6.778;2023-11-19T03:06:24;2.57;;;1.77;;
920;SDS011;447;51.332;6.778;2023-11-19T03:08:52;3.00;;;1.67;;
920;SDS011;447;51.332;6.778;2023-11-19T03:11:20;3.50;;;2.10;;
920;SDS011;447;51.332;6.778;2023-11-19T03:13:48;1.70;;;1.60;;
920;SDS011;447;51.332;6.778;2023-11-19T03:16:14;2.37;;;1.90;;
920;SDS011;447;51.332;6.778;2023-11-19T03:18:40;4.13;;;1.67;;
920;SDS011;447;51.332;6.778;2023-11-19T03:21:06;2.67;;;1.70;;
920;SDS011;447;51.332;6.778;2023-11-19T03:23:38;3.13;;;1.83;;
920;SDS011;447;51.332;6.778;2023-11-19T03:26:05;2.30;;;1.55;;
920;SDS011;447;51.332;6.778;2023-11-19T03:28:32;3.83;;;2.00;;
920;SDS011;447;51.332;6.778;2023-11-19T03:30:59;3.70;;;1.85;;
920;SDS011;447;51.332;6.778;2023-11-19T03:33:29;2.10;;;1.57;;
920;SDS011;447;51.332;6.778;2023-11-19T03:35:56;4.53;;;2.10;;
920;SDS011;447;51.332;6.778;2023-11-19T03:38:22;2.90;;;2.10;;
920;SDS011;447;51.332;6.778;2023-11-19T03:40:50;4.57;;;2.07;;
920;SDS011;447;51.332;6.778;2023-11-19T03:43:18;6.33;;;2.70;;
920;SDS011;447;51.332;6.778;2023-11-19T03:45:50;3.73;;;2.07;;
920;SDS011;447;51.332;6.778;2023-11-19T03:48:16;3.63;;;2.00;;
920;SDS011;447;51.332;6.778;2023-11-19T03:50:42;3.73;;;1.90;;
920;SDS011;447;51.332;6.778;2023-11-19T03:53:08;4.87;;;2.30;;
920;SDS011;447;51.332;6.778;2023-11-19T03:55:37;10.07;;;2.93;;
920;SDS011;447;51.332;6.778;2023-11-19T03:58:03;5.20;;;2.00;;
920;SDS011;447;51.332;6.778;2023-11-19T04:00:29;4.17;;;2.17;;
920;SDS011;447;51.332;6.778;2023-11-19T04:02:55;5.20;;;2.33;;
920;SDS011;447;51.332;6.778;2023-11-19T04:05:21;4.75;;;2.28;;
920;SDS011;447;51.332;6.778;2023-11-19T04:07:47;4.77;;;2.40;;
920;SDS011;447;51.332;6.778;2023-11-19T04:10:15;3.47;;;2.47;;
920;SDS011;447;51.332;6.778;2023-11-19T04:12:42;5.93;;;2.57;;
920;SDS011;447;51.332;6.778;2023-11-19T04:15:11;6.50;;;2.72;;
920;SDS011;447;51.332;6.778;2023-11-19T04:17:37;7.13;;;3.30;;
920;SDS011;447;51.332;6.778;2023-11-19T04:20:03;4.80;;;2.40;;
920;SDS011;447;51.332;6.778;2023-11-19T04:22:29;3.30;;;2.27;;
920;SDS011;447;51.332;6.778;2023-11-19T04:24:56;7.57;;;2.70;;
920;SDS011;447;51.332;6.778;2023-11-19T04:27:24;4.90;;;2.53;;
920;SDS011;447;51.332;6.778;2023-11-19T04:29:50;5.70;;;2.70;;
920;SDS011;447;51.332;6.778;2023-11-19T04:32:16;4.63;;;2.60;;
920;SDS011;447;51.332;6.778;2023-11-19T04:34:42;4.80;;;2.30;;
920;SDS011;447;51.332;6.778;2023-11-19T04:37:09;6.37;;;3.10;;
920;SDS011;447;51.332;6.778;2023-11-19T04:39:38;8.33;;;3.30;;
920;SDS011;447;51.332;6.778;2023-11-19T04:42:06;8.67;;;2.47;;
920;SDS011;447;51.332;6.778;2023-11-19T04:44:32;5.30;;;3.10;;
920;SDS011;447;51.332;6.778;2023-11-19T04:46:58;6.70;;;3.00;;
920;SDS011;447;51.332;6.778;2023-11-19T04:49:24;8.53;;;2.90;;
920;SDS011;447;51.332;6.778;2023-11-19T04:51:55;9.87;;;3.10;;
920;SDS011;447;51.332;6.778;2023-11-19T04:54:21;7.13;;;2.83;;
920;SDS011;447;51.332;6.778;2023-11-19T04:56:50;8.37;;;3.47;;
920;SDS011;447;51.332;6.778;2023-11-19T04:59:19;7.07;;;2.73;;
920;SDS011;447;51.332;6.778;2023-11-19T05:01:48;4.10;;;3.30;;
920;SDS011;447;51.332;6.778;2023-11-19T05:04:14;8.48;;;2.67;;
920;SDS011;447;51.332;6.778;2023-11-19T05:06:40;6.93;;;2.87;;
920;SDS011;447;51.332;6.778;2023-11-19T05:09:09;8.33;;;3.60;;
920;SDS011;447;51.332;6.778;2023-11-19T05:11:38;7.17;;;3.17;;
920;SDS011;447;51.332;6.778;2023-11-19T05:14:04;7.50;;;3.20;;
920;SDS011;447;51.332;6.778;2023-11-19T05:16:31;7.53;;;2.93;;
920;SDS011;447;51.332;6.778;2023-11-19T05:18:57;8.13;;;3.10;;
920;SDS011;447;51.332;6.778;2023-11-19T05:21:23;5.60;;;2.70;;
920;SDS011;447;51.332;6.778;2023-11-19T05:23:54;7.17;;;3.40;;
920;SDS011;447;51.332;6.778;2023-11-19T05:26:20;7.33;;;2.80;;
920;SDS011;447;51.332;6.778;2023-11-19T05:28:47;7.50;;;2.83;;
920;SDS011;447;51.332;6.778;2023-11-19T05:31:16;10.70;;;3.57;;
920;SDS011;447;51.332;6.778;2023-11-19T05:33:44;11.50;;;3.03;;
920;SDS011;447;51.332;6.778;2023-11-19T05:36:11;8.67;;;3.00;;
920;SDS011;447;51.332;6.778;2023-11-19T05:38:38;6.17;;;3.03;;
920;SDS011;447;51.332;6.778;2023-11-19T05:41:04;9.00;;;3.07;;
920;SDS011;447;51.332;6.778;2023-11-19T05:43:33;11.50;;;3.63;;
920;SDS011;447;51.332;6.778;2023-11-19T05:46:01;10.60;;;3.37;;
920;SDS011;447;51.332;6.778;2023-11-19T05:48:29;9.30;;;3.60;;
920;SDS011;447;51.332;6.778;2023-11-19T05:50:58;7.90;;;2.90;;
920;SDS011;447;51.332;6.778;2023-11-19T05:53:27;14.13;;;4.10;;
920;SDS011;447;51.332;6.778;2023-11-19T05:55:52;11.27;;;3.57;;
920;SDS011;447;51.332;6.778;2023-11-19T05:58:25;9.73;;;3.27;;
920;SDS011;447;51.332;6.778;2023-11-19T06:00:54;8.63;;;3.00;;
920;SDS011;447;51.332;6.778;2023-11-19T06:03:23;7.20;;;2.83;;
920;SDS011;447;51.332;6.778;2023-11-19T06:05:49;15.53;;;4.73;;
920;SDS011;447;51.332;6.778;2023-11-19T06:08:15;5.57;;;2.80;;
920;SDS011;447;51.332;6.778;2023-11-19T06:10:42;5.63;;;2.60;;
920;SDS011;447;51.332;6.778;2023-11-19T06:13:11;7.00;;;2.97;;
920;SDS011;447;51.332;6.778;2023-11-19T06:15:40;11.90;;;3.70;;
920;SDS011;447;51.332;6.778;2023-11-19T06:18:12;14.47;;;3.73;;
920;SDS011;447;51.332;6.778;2023-11-19T06:20:38;8.10;;;3.60;;
920;SDS011;447;51.332;6.778;2023-11-19T06:23:04;11.17;;;3.37;;
920;SDS011;447;51.332;6.778;2023-11-19T06:25:30;12.30;;;3.83;;
920;SDS011;447;51.332;6.778;2023-11-19T06:27:56;11.68;;;3.83;;
920;SDS011;447;51.332;6.778;2023-11-19T06:30:22;9.87;;;3.33;;
920;SDS011;447;51.332;6.778;2023-11-19T06:32:51;19.77;;;4.00;;
920;SDS011;447;51.332;6.778;2023-11-19T06:35:20;14.50;;;4.13;;
920;SDS011;447;51.332;6.778;2023-11-19T06:37:46;9.90;;;3.90;;
920;SDS011;447;51.332;6.778;2023-11-19T06:40:12;8.55;;;3.60;;
920;SDS011;447;51.332;6.778;2023-11-19T06:42:38;10.53;;;3.13;;
920;SDS011;447;51.332;6.778;2023-11-19T06:45:10;10.40;;;3.77;;
920;SDS011;447;51.332;6.778;2023-11-19T06:47:36;10.27;;;4.03;;
920;SDS011;447;51.332;6.778;2023-11-19T06:50:06;10.80;;;4.03;;
920;SDS011;447;51.332;6.778;2023-11-19T06:52:32;18.63;;;5.43;;
920;SDS011;447;51.332;6.778;2023-11-19T06:55:01;10.03;;;3.17;;
920;SDS011;447;51.332;6.778;2023-11-19T06:57:29;13.17;;;3.67;;
920;SDS011;447;51.332;6.778;2023-11-19T06:59:57;10.50;;;3.20;;
920;SDS011;447;51.332;6.778;2023-11-19T07:02:25;12.97;;;3.70;;
920;SDS011;447;51.332;6.778;2023-11-19T07:04:51;9.93;;;3.47;;
920;SDS011;447;51.332;6.778;2023-11-19T07:07:17;14.03;;;4.10;;
920;SDS011;447;51.332;6.778;2023-11-19T07:09:45;16.20;;;3.93;;
920;SDS011;447;51.332;6.778;2023-11-19T07:12:13;14.35;;;3.83;;
920;SDS011;447;51.332;6.778;2023-11-19T07:14:43;10.37;;;4.30;;
920;SDS011;447;51.332;6.778;2023-11-19T07:17:09;10.27;;;3.17;;
920;SDS011;447;51.332;6.778;2023-11-19T07:19:39;10.30;;;4.07;;
920;SDS011;447;51.332;6.778;2023-11-19T07:22:05;12.70;;;3.60;;
920;SDS011;447;51.332;6.778;2023-11-19T07:24:32;10.43;;;4.50;;
920;SDS011;447;51.332;6.778;2023-11-19T07:27:00;18.37;;;4.40;;
920;SDS011;447;51.332;6.778;2023-11-19T07:29:35;10.00;;;3.40;;
920;SDS011;447;51.332;6.778;2023-11-19T07:32:03;11.30;;;3.87;;
920;SDS011;447;51.332;6.778;2023-11-19T07:37:30;13.50;;;4.30;;
920;SDS011;447;51.332;6.778;2023-11-19T07:40:02;12.00;;;3.75;;
920;SDS011;447;51.332;6.778;2023-11-19T07:42:28;11.90;;;3.60;;
920;SDS011;447;51.332;6.778;2023-11-19T07:44:54;10.70;;;4.63;;
920;SDS011;447;51.332;6.778;2023-11-19T07:47:24;9.23;;;3.67;;
920;SDS011;447;51.332;6.778;2023-11-19T07:49:50;15.43;;;4.23;;
920;SDS011;447;51.332;6.778;2023-11-19T07:52:16;14.37;;;4.67;;
920;SDS011;447;51.332;6.778;2023-11-19T07:54:42;13.40;;;3.67;;
920;SDS011;447;51.332;6.778;2023-11-19T07:57:11;16.50;;;3.93;;
920;SDS011;447;51.332;6.778;2023-11-19T07:59:37;8.10;;;3.93;;
920;SDS011;447;51.332;6.778;2023-11-19T08:02:02;15.63;;;4.57;;
920;SDS011;447;51.332;6.778;2023-11-19T08:04:30;10.30;;;3.90;;
920;SDS011;447;51.332;6.778;2023-11-19T08:07:03;17.40;;;5.87;;
920;SDS011;447;51.332;6.778;2023-11-19T08:09:29;12.83;;;4.00;;
920;SDS011;447;51.332;6.778;2023-11-19T08:11:56;12.13;;;4.77;;
920;SDS011;447;51.332;6.778;2023-11-19T08:14:22;11.60;;;4.30;;
920;SDS011;447;51.332;6.778;2023-11-19T08:16:49;17.77;;;4.43;;
920;SDS011;447;51.332;6.778;2023-11-19T08:19:15;15.00;;;3.83;;
920;SDS011;447;51.332;6.778;2023-11-19T08:21:41;16.87;;;4.17;;
920;SDS011;447;51.332;6.778;2023-11-19T08:24:07;9.20;;;3.30;;
920;SDS011;447;51.332;6.778;2023-11-19T08:26:33;14.43;;;4.87;;
920;SDS011;447;51.332;6.778;2023-11-19T08:28:59;7.87;;;3.27;;
920;SDS011;447;51.332;6.778;2023-11-19T08:31:25;15.77;;;5.65;;
920;SDS011;447;51.332;6.778;2023-11-19T08:33:51;14.93;;;4.43;;
920;SDS011;447;51.332;6.778;2023-11-19T08:36:19;12.30;;;4.00;;
920;SDS011;447;51.332;6.778;2023-11-19T08:38:46;12.73;;;4.27;;
920;SDS011;447;51.332;6.778;2023-11-19T08:41:18;20.13;;;4.70;;
920;SDS011;447;51.332;6.778;2023-11-19T08:43:46;17.10;;;4.50;;
920;SDS011;447;51.332;6.778;2023-11-19T08:46:12;15.33;;;3.67;;
920;SDS011;447;51.332;6.778;2023-11-19T08:48:39;13.52;;;3.90;;
920;SDS011;447;51.332;6.778;2023-11-19T08:51:07;10.77;;;3.50;;
920;SDS011;447;51.332;6.778;2023-11-19T08:53:36;11.63;;;3.87;;
920;SDS011;447;51.332;6.778;2023-11-19T08:56:04;14.65;;;4.35;;
920;SDS011;447;51.332;6.778;2023-11-19T08:58:30;11.40;;;4.03;;
920;SDS011;447;51.332;6.778;2023-11-19T09:00:59;9.13;;;3.47;;
920;SDS011;447;51.332;6.778;2023-11-19T09:03:25;10.47;;;4.17;;
920;SDS011;447;51.332;6.778;2023-11-19T09:05:52;14.77;;;3.70;;
920;SDS011;447;51.332;6.778;2023-11-19T09:08:18;19.60;;;5.23;;
920;SDS011;447;51.332;6.778;2023-11-19T09:10:46;17.07;;;4.60;;
920;SDS011;447;51.332;6.778;2023-11-19T09:13:12;15.63;;;5.00;;
920;SDS011;447;51.332;6.778;2023-11-19T09:15:40;10.37;;;3.60;;
920;SDS011;447;51.332;6.778;2023-11-19T09:18:11;13.63;;;4.05;;
920;SDS011;447;51.332;6.778;2023-11-19T09:20:37;15.13;;;3.90;;
920;SDS011;447;51.332;6.778;2023-11-19T09:23:04;21.33;;;4.63;;
920;SDS011;447;51.332;6.778;2023-11-19T09:25:36;12.37;;;3.40;;
920;SDS011;447;51.332;6.778;2023-11-19T09:28:02;16.60;;;4.50;;
920;SDS011;447;51.332;6.778;2023-11-19T09:30:29;11.70;;;3.63;;
920;SDS011;447;51.332;6.778;2023-11-19T09:32:58;14.50;;;4.30;;
920;SDS011;447;51.332;6.778;2023-11-19T09:35:25;19.70;;;4.70;;
920;SDS011;447;51.332;6.778;2023-11-19T09:37:54;13.63;;;4.10;;
920;SDS011;447;51.332;6.778;2023-11-19T09:40:24;18.67;;;4.60;;
920;SDS011;447;51.332;6.778;2023-11-19T09:42:51;9.80;;;3.70;;
920;SDS011;447;51.332;6.778;2023-11-19T09:45:17;11.23;;;5.40;;
920;SDS011;447;51.332;6.778;2023-11-19T09:47:46;15.83;;;5.03;;
920;SDS011;447;51.332;6.778;2023-11-19T09:50:19;21.13;;;5.03;;
920;SDS011;447;51.332;6.778;2023-11-19T09:52:48;17.43;;;4.70;;
920;SDS011;447;51.332;6.778;2023-11-19T09:55:14;13.17;;;3.80;;
920;SDS011;447;51.332;6.778;2023-11-19T09:57:46;12.73;;;4.53;;
920;SDS011;447;51.332;6.778;2023-11-19T10:00:14;13.63;;;4.33;;
920;SDS011;447;51.332;6.778;2023-11-19T10:02:42;12.43;;;4.17;;
920;SDS011;447;51.332;6.778;2023-11-19T10:05:11;21.97;;;4.50;;
920;SDS011;447;51.332;6.778;2023-11-19T10:07:38;15.80;;;4.30;;
920;SDS011;447;51.332;6.778;2023-11-19T10:10:05;12.60;;;4.83;;
920;SDS011;447;51.332;6.778;2023-11-19T10:12:36;19.43;;;4.63;;
920;SDS011;447;51.332;6.778;2023-11-19T10:15:02;16.90;;;4.43;;
920;SDS011;447;51.332;6.778;2023-11-19T10:17:32;17.07;;;4.87;;
920;SDS011;447;51.332;6.778;2023-11-19T10:19:59;16.60;;;5.37;;
920;SDS011;447;51.332;6.778;2023-11-19T10:22:27;17.00;;;4.60;;
920;SDS011;447;51.332;6.778;2023-11-19T10:24:53;14.60;;;4.20;;
920;SDS011;447;51.332;6.778;2023-11-19T10:27:19;19.23;;;4.73;;
920;SDS011;447;51.332;6.778;2023-11-19T10:29:48;20.50;;;4.90;;
920;SDS011;447;51.332;6.778;2023-11-19T10:32:14;23.90;;;4.70;;
920;SDS011;447;51.332;6.778;2023-11-19T10:34:40;16.63;;;4.80;;
920;SDS011;447;51.332;6.778;2023-11-19T10:37:07;19.30;;;4.70;;
920;SDS011;447;51.332;6.778;2023-11-19T10:39:51;12.87;;;4.33;;
920;SDS011;447;51.332;6.778;2023-11-19T10:42:20;19.57;;;4.67;;
920;SDS011;447;51.332;6.778;2023-11-19T10:44:46;14.35;;;4.50;;
920;SDS011;447;51.332;6.778;2023-11-19T10:47:14;16.53;;;3.60;;
920;SDS011;447;51.332;6.778;2023-11-19T10:49:44;16.65;;;4.88;;
920;SDS011;447;51.332;6.778;2023-11-19T10:52:11;12.07;;;3.60;;
920;SDS011;447;51.332;6.778;2023-11-19T10:54:44;17.17;;;4.50;;
920;SDS011;447;51.332;6.778;2023-11-19T10:57:21;16.40;;;3.97;;
920;SDS011;447;51.332;6.778;2023-11-19T10:59:52;16.23;;;3.93;;
920;SDS011;447;51.332;6.778;2023-11-19T11:02:21;11.63;;;3.40;;
920;SDS011;447;51.332;6.778;2023-11-19T11:04:52;14.73;;;4.30;;
920;SDS011;447;51.332;6.778;2023-11-19T11:07:22;12.40;;;4.00;;
920;SDS011;447;51.332;6.778;2023-11-19T11:09:54;16.63;;;4.30;;
920;SDS011;447;51.332;6.778;2023-11-19T11:12:23;13.97;;;4.53;;
920;SDS011;447;51.332;6.778;2023-11-19T11:14:50;11.23;;;4.10;;
920;SDS011;447;51.332;6.778;2023-11-19T11:17:20;13.13;;;4.03;;
920;SDS011;447;51.332;6.778;2023-11-19T11:19:52;13.90;;;3.77;;
920;SDS011;447;51.332;6.778;2023-11-19T11:22:18;17.07;;;4.37;;
920;SDS011;447;51.332;6.778;2023-11-19T11:25:00;13.10;;;4.00;;
920;SDS011;447;51.332;6.778;2023-11-19T11:31:08;19.70;;;4.30;;
920;SDS011;447;51.332;6.778;2023-11-19T11:33:52;14.90;;;3.47;;
920;SDS011;447;51.332;6.778;2023-11-19T11:36:32;12.03;;;4.23;;
920;SDS011;447;51.332;6.778;2023-11-19T11:39:15;14.87;;;3.80;;
920;SDS011;447;51.332;6.778;2023-11-19T11:41:41;17.03;;;4.30;;
920;SDS011;447;51.332;6.778;2023-11-19T11:44:10;12.17;;;3.17;;
920;SDS011;447;51.332;6.778;2023-11-19T11:49:02;13.40;;;3.47;;
920;SDS011;447;51.332;6.778;2023-11-19T11:54:09;21.27;;;5.07;;
920;SDS011;447;51.332;6.778;2023-11-19T11:56:39;13.33;;;3.60;;
920;SDS011;447;51.332;6.778;2023-11-19T11:59:07;10.27;;;2.90;;
920;SDS011;447;51.332;6.778;2023-11-19T12:01:58;13.63;;;3.63;;
920;SDS011;447;51.332;6.778;2023-11-19T12:04:28;12.53;;;3.10;;
920;SDS011;447;51.332;6.778;2023-11-19T12:07:04;13.90;;;4.70;;
920;SDS011;447;51.332;6.778;2023-11-19T12:09:31;9.67;;;4.60;;
920;SDS011;447;51.332;6.778;2023-11-19T12:12:11;14.93;;;3.73;;
920;SDS011;447;51.332;6.778;2023-11-19T12:20:07;15.23;;;3.83;;
920;SDS011;447;51.332;6.778;2023-11-19T12:22:43;18.63;;;3.83;;
920;SDS011;447;51.332;6.778;2023-11-19T12:25:11;12.93;;;3.73;;
920;SDS011;447;51.332;6.778;2023-11-19T12:27:41;12.37;;;3.43;;
920;SDS011;447;51.332;6.778;2023-11-19T12:30:16;11.77;;;3.40;;
920;SDS011;447;51.332;6.778;2023-11-19T12:32:45;11.80;;;3.97;;
920;SDS011;447;51.332;6.778;2023-11-19T12:35:12;7.73;;;3.03;;
920;SDS011;447;51.332;6.778;2023-11-19T12:37:45;15.93;;;3.23;;
920;SDS011;447;51.332;6.778;2023-11-19T12:40:22;11.60;;;4.37;;
920;SDS011;447;51.332;6.778;2023-11-19T12:42:54;10.53;;;3.60;;
920;SDS011;447;51.332;6.778;2023-11-19T12:45:23;11.40;;;4.53;;
920;SDS011;447;51.332;6.778;2023-11-19T12:47:49;12.60;;;3.70;;
920;SDS011;447;51.332;6.778;2023-11-19T12:50:20;13.80;;;3.80;;
920;SDS011;447;51.332;6.778;2023-11-19T12:52:56;12.07;;;3.80;;
920;SDS011;447;51.332;6.778;2023-11-19T12:57:53;10.80;;;3.43;;
920;SDS011;447;51.332;6.778;2023-11-19T13:00:24;12.20;;;4.13;;
920;SDS011;447;51.332;6.778;2023-11-19T13:02:54;13.60;;;3.77;;
920;SDS011;447;51.332;6.778;2023-11-19T13:10:31;9.80;;;3.43;;
920;SDS011;447;51.332;6.778;2023-11-19T13:13:08;11.97;;;3.60;;
920;SDS011;447;51.332;6.778;2023-11-19T13:15:34;13.50;;;4.40;;
920;SDS011;447;51.332;6.778;2023-11-19T13:18:01;6.63;;;3.40;;
920;SDS011;447;51.332;6.778;2023-11-19T13:20:28;14.37;;;3.93;;
920;SDS011;447;51.332;6.778;2023-11-19T13:22:56;9.53;;;3.50;;
920;SDS011;447;51.332;6.778;2023-11-19T13:25:33;14.43;;;3.63;;
920;SDS011;447;51.332;6.778;2023-11-19T13:28:02;16.53;;;4.30;;
920;SDS011;447;51.332;6.778;2023-11-19T13:30:28;11.53;;;3.30;;
920;SDS011;447;51.332;6.778;2023-11-19T13:33:17;12.93;;;3.50;;
920;SDS011;447;51.332;6.778;2023-11-19T13:35:45;12.07;;;4.18;;
920;SDS011;447;51.332;6.778;2023-11-19T13:38:11;7.80;;;3.30;;
920;SDS011;447;51.332;6.778;2023-11-19T13:40:37;14.07;;;4.20;;
920;SDS011;447;51.332;6.778;2023-11-19T13:43:04;8.40;;;3.63;;
920;SDS011;447;51.332;6.778;2023-11-19T13:45:33;12.70;;;3.40;;
920;SDS011;447;51.332;6.778;2023-11-19T13:48:04;13.03;;;4.30;;
920;SDS011;447;51.332;6.778;2023-11-19T13:50:30;10.00;;;3.87;;
920;SDS011;447;51.332;6.778;2023-11-19T13:52:57;12.33;;;3.27;;
920;SDS011;447;51.332;6.778;2023-11-19T13:55:23;10.57;;;3.60;;
920;SDS011;447;51.332;6.778;2023-11-19T13:57:52;9.43;;;3.53;;
920;SDS011;447;51.332;6.778;2023-11-19T14:03:22;12.63;;;3.73;;
920;SDS011;447;51.332;6.778;2023-11-19T14:05:50;11.43;;;3.73;;
920;SDS011;447;51.332;6.778;2023-11-19T14:08:18;17.00;;;4.30;;
920;SDS011;447;51.332;6.778;2023-11-19T14:10:44;8.07;;;3.72;;
920;SDS011;447;51.332;6.778;2023-11-19T14:13:11;12.70;;;3.53;;
920;SDS011;447;51.332;6.778;2023-11-19T14:15:40;9.83;;;3.50;;
920;SDS011;447;51.332;6.778;2023-11-19T14:18:09;11.13;;;3.50;;
920;SDS011;447;51.332;6.778;2023-11-19T14:20:36;9.70;;;3.20;;
920;SDS011;447;51.332;6.778;2023-11-19T14:23:04;8.20;;;3.30;;
920;SDS011;447;51.332;6.778;2023-11-19T14:25:36;11.50;;;4.27;;
920;SDS011;447;51.332;6.778;2023-11-19T14:28:04;14.57;;;4.37;;
920;SDS011;447;51.332;6.778;2023-11-19T14:30:31;10.03;;;3.03;;
920;SDS011;447;51.332;6.778;2023-11-19T14:33:02;15.87;;;3.73;;
920;SDS011;447;51.332;6.778;2023-11-19T14:35:28;14.07;;;3.80;;
920;SDS011;447;51.332;6.778;2023-11-19T14:37:58;15.00;;;3.50;;
920;SDS011;447;51.332;6.778;2023-11-19T14:40:24;15.30;;;3.80;;
920;SDS011;447;51.332;6.778;2023-11-19T14:42:57;12.43;;;3.28;;
920;SDS011;447;51.332;6.778;2023-11-19T14:45:23;8.17;;;2.97;;
920;SDS011;447;51.332;6.778;2023-11-19T14:47:52;8.80;;;3.30;;
920;SDS011;447;51.332;6.778;2023-11-19T14:50:19;11.20;;;3.50;;
920;SDS011;447;51.332;6.778;2023-11-19T14:52:45;10.87;;;3.63;;
920;SDS011;447;51.332;6.778;2023-11-19T14:55:13;11.40;;;3.40;;
920;SDS011;447;51.332;6.778;2023-11-19T14:57:39;13.20;;;3.63;;
920;SDS011;447;51.332;6.778;2023-11-19T15:00:08;11.90;;;3.80;;
920;SDS011;447;51.332;6.778;2023-11-19T15:02:41;12.87;;;3.97;;
920;SDS011;447;51.332;6.778;2023-11-19T15:05:12;13.73;;;3.70;;
920;SDS011;447;51.332;6.778;2023-11-19T15:07:40;17.60;;;4.23;;
920;SDS011;447;51.332;6.778;2023-11-19T15:10:09;8.90;;;3.23;;
920;SDS011;447;51.332;6.778;2023-11-19T15:12:40;15.33;;;4.20;;
920;SDS011;447;51.332;6.778;2023-11-19T15:15:12;11.83;;;3.63;;
920;SDS011;447;51.332;6.778;2023-11-19T15:17:41;10.40;;;3.50;;
920;SDS011;447;51.332;6.778;2023-11-19T15:20:13;10.90;;;3.80;;
920;SDS011;447;51.332;6.778;2023-11-19T15:22:44;11.83;;;4.60;;
920;SDS011;447;51.332;6.778;2023-11-19T15:25:10;8.10;;;3.77;;
920;SDS011;447;51.332;6.778;2023-11-19T15:27:36;8.00;;;3.30;;
920;SDS011;447;51.332;6.778;2023-11-19T15:30:02;10.77;;;4.20;;
920;SDS011;447;51.332;6.778;2023-11-19T15:32:28;9.20;;;4.00;;
920;SDS011;447;51.332;6.778;2023-11-19T15:35:03;10.63;;;3.90;;
920;SDS011;447;51.332;6.778;2023-11-19T15:37:30;11.37;;;3.27;;
920;SDS011;447;51.332;6.778;2023-11-19T15:40:01;9.20;;;3.57;;
920;SDS011;447;51.332;6.778;2023-11-19T15:42:29;7.53;;;3.00;;
920;SDS011;447;51.332;6.778;2023-11-19T15:44:57;6.53;;;2.90;;
920;SDS011;447;51.332;6.778;2023-11-19T15:47:29;11.60;;;3.37;;
920;SDS011;447;51.332;6.778;2023-11-19T15:49:59;10.00;;;3.93;;
920;SDS011;447;51.332;6.778;2023-11-19T15:52:25;10.30;;;3.10;;
920;SDS011;447;51.332;6.778;2023-11-19T15:54:52;10.00;;;3.63;;
920;SDS011;447;51.332;6.778;2023-11-19T15:57:18;15.77;;;3.60;;
920;SDS011;447;51.332;6.778;2023-11-19T15:59:44;12.27;;;4.30;;
920;SDS011;447;51.332;6.778;2023-11-19T16:02:13;15.10;;;3.27;;
920;SDS011;447;51.332;6.778;2023-11-19T16:04:42;7.60;;;2.90;;
920;SDS011;447;51.332;6.778;2023-11-19T16:07:15;10.90;;;3.50;;
920;SDS011;447;51.332;6.778;2023-11-19T16:09:41;13.10;;;3.23;;
920;SDS011;447;51.332;6.778;2023-11-19T16:12:12;7.33;;;3.13;;